Casper, WY

9:02 PM MDT on August 30, 2015 (GMT -0600)
Casper Mountain Foothills | | Change Station
CLOSE
Current Station
Personal Weather Station
Location: Casper, WY
Elevation: 5334 ft
Nearby Weather Stations
Active Advisory: Fire Weather Advisory

Elev 5334 ft 42.83 °N, 106.31 °W | Updated 2 minutes ago

Mostly Cloudy
Mostly Cloudy
77.0 °F
Feels Like 77 °F
N
2.0
Wind Variable Wind from West
Gusts 2.0 mph

Today
High -- | Low -- °F
--% Chance of Precip.
Yesterday
High -- | Low -- °F
Precip. -- in
6:27 AM 7:43 PM
Full, 97% visible
Pressure 29.74 in
Visibility 10.0 miles
Clouds Clear
Heat Index 77 °F
Dew Point 40 °F
Humidity 26%
Rainfall 0.00 in
Snow Depth Not available.
UV 0 out of 12
Pollen 10.40 out of 12
Air Quality Not available.
Flu Activity Not available.
METAR KCPR 310253Z AUTO 22009KT 10SM CLR 22/07 A2996 RMK AO2 SLP069 T02170072 55002
Pressure 29.74 in
Visibility 10.0 miles
Clouds Clear
Heat Index 77 °F
Dew Point 40 °F
Humidity 26%
Rainfall 0.00 in
Snow Depth Not available.
UV 0 out of 12
Pollen 10.40 out of 12
Air Quality Not available.
Flu Activity Not available.
METAR KCPR 310253Z AUTO 22009KT 10SM CLR 22/07 A2996 RMK AO2 SLP069 T02170072 55002

10-Day Weather Forecast

×

Almanac

Astronomy

Aug. 30, 2015 Rise Set
Actual Time
Civil Twilight
Nautical Twilight
Astronomical Twilight
Moon
Length of Visible Light
Length of Day
Tomorrow will be .
, % of the Moon is Illuminated

Today's Extremes

State Highs State Lows

Community

WunderPhotos

Upload Photos

1,851,166 photos uploaded!

WunderBlogs® & News

Nearby

Air Quality

  Air Quality AQ Index Pollutant
Not available.

Snow Depth

Station Depth Elevation

Earthquake Activity

City Distance Mag. Time & Date
Minimum magnitude displayed is 2.5.

Coastal Water Temperatures

Place Temperature

Stations

Nearby Weather Stations

Station Location Temp. Windchill Dew Point Humidity Wind Precip. Elev Updated Type
                   
Fire Weather Advisory
Statement as of 9:00 PM MDT on August 30, 2015

... Red flag warning will expire at 9 PM MDT this evening..

Most thunderstorm activity had ended across the area this
evening... temperatures had cooled and relative humidities have
increased above critical thresholds.